Airfield :
LOGIN :

Register | Disclaimer

   EN    FR    IT 

 










Legend :    VFR   Marginal VFR   IFR   Intensive IFR   Very Intensive IFR
Visi :
Ceiling :
>= 8 km
>= 3000ft
5 to 8 km
1000 to 3000 ft
1500m to 5 km
500 to 1000 ft
800 to 1500m
200 to 500 ft
< 800m
< 200 ft
Symbols :   Thunderstorms  Fog  Heavy snow  Heavy precipitations  Wind > 20 kt
SIGMETs :     Misc.  Thunderstorms  Icing  Turbulence  Mountain Waves  Volcanic Ashes






- Airport Elevation : 82 ft
- IATA code : ALG


DAAG - Alger Houari Boumedienne

CURRENT METAR :
  • 161330Z 17016KT CAVOK 21/08 Q1011

EXPIRED METARs :
  • 161300Z 18019KT CAVOK 21/07 Q1011
  • 161230Z 18022KT CAVOK 21/08 Q1011
  • 161200Z 19018KT CAVOK 20/07 Q1012
  • 161130Z 18020KT CAVOK 20/07 Q1013
  • 161100Z 17014KT CAVOK 20/07 Q1013

TAF COR TAF DAAG
Valid from the 16 at 12:00 until the 17 at 12:00 UTC


161100Z 1612/1712 17015KT 9999 FEW033 BKN090
TEMPO 1612/1703 17015G25KT
PROB30
TEMPO 1612/1618 FEW023TCU
PROB40
TEMPO 1615/1622 17025G35KT
PROB30
TEMPO 1706/1712 5000 DU
BECMG 1708/1712 11012KT



MET'MAP, your aeronautical weather chart ! - Copyright ORBIFLY December 2007 - Disclaimer

ORBIFLY MET'MAP TEAM :

Programming & Development : Alexandra Zaïnal
Concept & original design : Baudouin d'Aumeries
Assistance for programming : Marc-Olivier Méhu
Technical & hardware support : Manuel Goepfert

Contact : metmap@orbifly.com




SOURCES & CREDITS :

   NOAA